sensor_id;sensor_type;location;lat;lon;timestamp;P1;durP1;ratioP1;P2;durP2;ratioP2
57113;SDS011;42994;51.606;9.988;2023-02-03T00:02:06;24.98;;;13.52;;
57113;SDS011;42994;51.606;9.988;2023-02-03T00:04:33;27.98;;;15.38;;
57113;SDS011;42994;51.606;9.988;2023-02-03T00:07:00;26.85;;;16.25;;
57113;SDS011;42994;51.606;9.988;2023-02-03T00:09:26;28.60;;;15.70;;
57113;SDS011;42994;51.606;9.988;2023-02-03T00:11:54;28.55;;;14.82;;
57113;SDS011;42994;51.606;9.988;2023-02-03T00:14:21;29.58;;;16.27;;
57113;SDS011;42994;51.606;9.988;2023-02-03T00:16:48;27.65;;;16.45;;
57113;SDS011;42994;51.606;9.988;2023-02-03T00:19:15;36.00;;;19.45;;
57113;SDS011;42994;51.606;9.988;2023-02-03T00:21:41;31.88;;;18.13;;
57113;SDS011;42994;51.606;9.988;2023-02-03T00:24:08;33.40;;;19.83;;
57113;SDS011;42994;51.606;9.988;2023-02-03T00:26:34;38.85;;;19.85;;
57113;SDS011;42994;51.606;9.988;2023-02-03T00:29:07;38.08;;;20.98;;
57113;SDS011;42994;51.606;9.988;2023-02-03T00:31:34;32.85;;;19.25;;
57113;SDS011;42994;51.606;9.988;2023-02-03T00:34:01;34.50;;;20.23;;
57113;SDS011;42994;51.606;9.988;2023-02-03T00:36:28;37.28;;;21.80;;
57113;SDS011;42994;51.606;9.988;2023-02-03T00:38:54;41.33;;;22.58;;
57113;SDS011;42994;51.606;9.988;2023-02-03T00:41:21;41.40;;;22.13;;
57113;SDS011;42994;51.606;9.988;2023-02-03T00:43:50;37.58;;;22.90;;
57113;SDS011;42994;51.606;9.988;2023-02-03T00:46:18;42.03;;;23.70;;
57113;SDS011;42994;51.606;9.988;2023-02-03T00:48:44;46.53;;;24.80;;
57113;SDS011;42994;51.606;9.988;2023-02-03T00:51:11;38.80;;;23.30;;
57113;SDS011;42994;51.606;9.988;2023-02-03T00:53:38;42.90;;;23.85;;
57113;SDS011;42994;51.606;9.988;2023-02-03T00:56:05;40.30;;;24.20;;
57113;SDS011;42994;51.606;9.988;2023-02-03T01:01:03;43.42;;;24.55;;
57113;SDS011;42994;51.606;9.988;2023-02-03T01:03:31;40.17;;;24.33;;
57113;SDS011;42994;51.606;9.988;2023-02-03T01:06:06;44.63;;;25.08;;
57113;SDS011;42994;51.606;9.988;2023-02-03T01:08:33;42.97;;;23.65;;
57113;SDS011;42994;51.606;9.988;2023-02-03T01:11:04;40.63;;;25.98;;
57113;SDS011;42994;51.606;9.988;2023-02-03T01:13:31;47.38;;;24.20;;
57113;SDS011;42994;51.606;9.988;2023-02-03T01:15:58;37.20;;;24.48;;
57113;SDS011;42994;51.606;9.988;2023-02-03T01:18:24;35.85;;;23.42;;
57113;SDS011;42994;51.606;9.988;2023-02-03T01:20:52;42.75;;;26.48;;
57113;SDS011;42994;51.606;9.988;2023-02-03T01:23:19;35.92;;;23.45;;
57113;SDS011;42994;51.606;9.988;2023-02-03T01:25:46;40.08;;;24.20;;
57113;SDS011;42994;51.606;9.988;2023-02-03T01:28:12;34.97;;;23.05;;
57113;SDS011;42994;51.606;9.988;2023-02-03T01:30:39;45.92;;;24.52;;
57113;SDS011;42994;51.606;9.988;2023-02-03T01:33:06;34.60;;;23.13;;
57113;SDS011;42994;51.606;9.988;2023-02-03T01:35:33;34.15;;;21.88;;
57113;SDS011;42994;51.606;9.988;2023-02-03T01:38:01;34.55;;;21.65;;
57113;SDS011;42994;51.606;9.988;2023-02-03T01:40:28;41.42;;;23.85;;
57113;SDS011;42994;51.606;9.988;2023-02-03T01:42:54;34.35;;;22.40;;
57113;SDS011;42994;51.606;9.988;2023-02-03T01:45:22;37.80;;;23.52;;
57113;SDS011;42994;51.606;9.988;2023-02-03T01:47:49;38.42;;;22.13;;
57113;SDS011;42994;51.606;9.988;2023-02-03T01:50:20;35.80;;;23.58;;
57113;SDS011;42994;51.606;9.988;2023-02-03T01:52:50;35.47;;;21.90;;
57113;SDS011;42994;51.606;9.988;2023-02-03T01:55:23;38.30;;;22.77;;
57113;SDS011;42994;51.606;9.988;2023-02-03T01:57:57;38.40;;;23.52;;
57113;SDS011;42994;51.606;9.988;2023-02-03T02:00:28;34.58;;;23.25;;
57113;SDS011;42994;51.606;9.988;2023-02-03T02:02:54;34.75;;;22.38;;
57113;SDS011;42994;51.606;9.988;2023-02-03T02:05:26;36.78;;;23.90;;
57113;SDS011;42994;51.606;9.988;2023-02-03T02:07:57;38.95;;;24.70;;
57113;SDS011;42994;51.606;9.988;2023-02-03T02:10:26;40.75;;;24.77;;
57113;SDS011;42994;51.606;9.988;2023-02-03T02:12:54;40.97;;;23.88;;
57113;SDS011;42994;51.606;9.988;2023-02-03T02:15:22;38.13;;;22.30;;
57113;SDS011;42994;51.606;9.988;2023-02-03T02:18:03;38.45;;;22.85;;
57113;SDS011;42994;51.606;9.988;2023-02-03T02:20:51;39.95;;;24.05;;
57113;SDS011;42994;51.606;9.988;2023-02-03T02:23:42;43.78;;;23.38;;
57113;SDS011;42994;51.606;9.988;2023-02-03T02:26:40;40.83;;;23.23;;
57113;SDS011;42994;51.606;9.988;2023-02-03T02:29:27;32.83;;;20.75;;
57113;SDS011;42994;51.606;9.988;2023-02-03T02:32:15;33.22;;;22.08;;
57113;SDS011;42994;51.606;9.988;2023-02-03T02:34:49;35.17;;;21.40;;
57113;SDS011;42994;51.606;9.988;2023-02-03T02:37:25;33.65;;;21.38;;
57113;SDS011;42994;51.606;9.988;2023-02-03T02:40:07;33.20;;;21.80;;
57113;SDS011;42994;51.606;9.988;2023-02-03T02:42:41;31.05;;;19.75;;
57113;SDS011;42994;51.606;9.988;2023-02-03T02:45:20;31.98;;;19.38;;
57113;SDS011;42994;51.606;9.988;2023-02-03T02:47:54;32.47;;;21.15;;
57113;SDS011;42994;51.606;9.988;2023-02-03T02:50:27;31.45;;;21.40;;
57113;SDS011;42994;51.606;9.988;2023-02-03T02:52:59;33.38;;;20.95;;
57113;SDS011;42994;51.606;9.988;2023-02-03T02:55:26;35.85;;;22.45;;
57113;SDS011;42994;51.606;9.988;2023-02-03T02:57:59;36.45;;;18.88;;
57113;SDS011;42994;51.606;9.988;2023-02-03T03:00:31;28.33;;;19.30;;
57113;SDS011;42994;51.606;9.988;2023-02-03T03:03:09;32.10;;;19.77;;
57113;SDS011;42994;51.606;9.988;2023-02-03T03:05:38;30.17;;;18.75;;
57113;SDS011;42994;51.606;9.988;2023-02-03T03:10:38;30.63;;;19.40;;
57113;SDS011;42994;51.606;9.988;2023-02-03T03:13:07;27.15;;;18.23;;
57113;SDS011;42994;51.606;9.988;2023-02-03T03:15:40;31.00;;;19.30;;
57113;SDS011;42994;51.606;9.988;2023-02-03T03:18:10;31.65;;;19.33;;
57113;SDS011;42994;51.606;9.988;2023-02-03T03:20:41;35.00;;;18.08;;
57113;SDS011;42994;51.606;9.988;2023-02-03T03:23:10;29.33;;;18.75;;
57113;SDS011;42994;51.606;9.988;2023-02-03T03:25:45;26.20;;;18.52;;
57113;SDS011;42994;51.606;9.988;2023-02-03T03:28:19;33.92;;;19.48;;
57113;SDS011;42994;51.606;9.988;2023-02-03T03:30:50;28.35;;;18.88;;
57113;SDS011;42994;51.606;9.988;2023-02-03T03:33:19;27.40;;;17.17;;
57113;SDS011;42994;51.606;9.988;2023-02-03T03:35:47;23.05;;;17.08;;
57113;SDS011;42994;51.606;9.988;2023-02-03T03:38:20;25.92;;;17.05;;
57113;SDS011;42994;51.606;9.988;2023-02-03T03:40:50;25.38;;;16.90;;
57113;SDS011;42994;51.606;9.988;2023-02-03T03:43:24;26.70;;;17.25;;
57113;SDS011;42994;51.606;9.988;2023-02-03T03:45:57;24.92;;;16.10;;
57113;SDS011;42994;51.606;9.988;2023-02-03T03:48:29;23.23;;;15.88;;
57113;SDS011;42994;51.606;9.988;2023-02-03T03:51:01;25.55;;;15.65;;
57113;SDS011;42994;51.606;9.988;2023-02-03T03:53:31;21.45;;;14.98;;
57113;SDS011;42994;51.606;9.988;2023-02-03T03:55:59;26.92;;;15.52;;
57113;SDS011;42994;51.606;9.988;2023-02-03T03:58:29;23.33;;;15.52;;
57113;SDS011;42994;51.606;9.988;2023-02-03T04:00:57;22.83;;;15.75;;
57113;SDS011;42994;51.606;9.988;2023-02-03T04:03:27;20.75;;;13.82;;
57113;SDS011;42994;51.606;9.988;2023-02-03T04:05:58;19.98;;;15.80;;
57113;SDS011;42994;51.606;9.988;2023-02-03T04:08:25;25.60;;;14.93;;
57113;SDS011;42994;51.606;9.988;2023-02-03T04:10:51;21.17;;;15.02;;
57113;SDS011;42994;51.606;9.988;2023-02-03T04:13:18;22.30;;;14.85;;
57113;SDS011;42994;51.606;9.988;2023-02-03T04:15:45;23.17;;;15.15;;
57113;SDS011;42994;51.606;9.988;2023-02-03T04:18:12;19.10;;;13.48;;
57113;SDS011;42994;51.606;9.988;2023-02-03T04:20:41;21.83;;;13.88;;
57113;SDS011;42994;51.606;9.988;2023-02-03T04:23:08;23.42;;;14.50;;
57113;SDS011;42994;51.606;9.988;2023-02-03T04:25:35;21.95;;;14.15;;
57113;SDS011;42994;51.606;9.988;2023-02-03T04:28:02;17.83;;;13.23;;
57113;SDS011;42994;51.606;9.988;2023-02-03T04:30:30;16.08;;;12.48;;
57113;SDS011;42994;51.606;9.988;2023-02-03T04:32:57;19.00;;;13.10;;
57113;SDS011;42994;51.606;9.988;2023-02-03T04:35:23;22.42;;;13.52;;
57113;SDS011;42994;51.606;9.988;2023-02-03T04:37:51;21.38;;;13.45;;
57113;SDS011;42994;51.606;9.988;2023-02-03T04:40:18;23.63;;;15.15;;
57113;SDS011;42994;51.606;9.988;2023-02-03T04:42:44;20.02;;;14.30;;
57113;SDS011;42994;51.606;9.988;2023-02-03T04:45:11;19.92;;;13.57;;
57113;SDS011;42994;51.606;9.988;2023-02-03T04:47:38;21.40;;;13.90;;
57113;SDS011;42994;51.606;9.988;2023-02-03T04:50:05;21.70;;;14.40;;
57113;SDS011;42994;51.606;9.988;2023-02-03T04:52:32;23.85;;;14.23;;
57113;SDS011;42994;51.606;9.988;2023-02-03T04:55:00;22.08;;;13.50;;
57113;SDS011;42994;51.606;9.988;2023-02-03T04:57:28;25.52;;;14.93;;
57113;SDS011;42994;51.606;9.988;2023-02-03T04:59:54;21.98;;;12.90;;
57113;SDS011;42994;51.606;9.988;2023-02-03T05:02:21;18.73;;;13.32;;
57113;SDS011;42994;51.606;9.988;2023-02-03T05:04:47;21.33;;;13.27;;
57113;SDS011;42994;51.606;9.988;2023-02-03T05:07:14;25.88;;;14.02;;
57113;SDS011;42994;51.606;9.988;2023-02-03T05:09:41;21.92;;;13.63;;
57113;SDS011;42994;51.606;9.988;2023-02-03T05:12:08;19.23;;;13.05;;
57113;SDS011;42994;51.606;9.988;2023-02-03T05:14:35;24.30;;;13.60;;
57113;SDS011;42994;51.606;9.988;2023-02-03T05:17:02;17.60;;;12.10;;
57113;SDS011;42994;51.606;9.988;2023-02-03T05:19:28;21.10;;;13.45;;
57113;SDS011;42994;51.606;9.988;2023-02-03T05:21:55;19.40;;;12.25;;
57113;SDS011;42994;51.606;9.988;2023-02-03T05:24:21;16.13;;;12.07;;
57113;SDS011;42994;51.606;9.988;2023-02-03T05:26:48;19.42;;;12.35;;
57113;SDS011;42994;51.606;9.988;2023-02-03T05:29:16;24.60;;;12.50;;
57113;SDS011;42994;51.606;9.988;2023-02-03T05:31:42;18.08;;;12.52;;
57113;SDS011;42994;51.606;9.988;2023-02-03T05:34:09;18.10;;;10.73;;
57113;SDS011;42994;51.606;9.988;2023-02-03T05:36:36;19.40;;;12.68;;
57113;SDS011;42994;51.606;9.988;2023-02-03T05:39:02;20.10;;;12.30;;
57113;SDS011;42994;51.606;9.988;2023-02-03T05:41:29;18.88;;;10.95;;
57113;SDS011;42994;51.606;9.988;2023-02-03T05:44:13;18.77;;;12.38;;
57113;SDS011;42994;51.606;9.988;2023-02-03T05:46:41;17.42;;;11.27;;
57113;SDS011;42994;51.606;9.988;2023-02-03T05:49:08;16.45;;;10.77;;
57113;SDS011;42994;51.606;9.988;2023-02-03T05:51:34;22.40;;;12.25;;
57113;SDS011;42994;51.606;9.988;2023-02-03T05:54:01;12.98;;;10.88;;
57113;SDS011;42994;51.606;9.988;2023-02-03T05:56:28;15.82;;;11.27;;
57113;SDS011;42994;51.606;9.988;2023-02-03T05:58:54;16.90;;;11.85;;
57113;SDS011;42994;51.606;9.988;2023-02-03T06:01:21;18.55;;;10.70;;
57113;SDS011;42994;51.606;9.988;2023-02-03T06:03:49;21.08;;;12.35;;
57113;SDS011;42994;51.606;9.988;2023-02-03T06:06:16;25.05;;;11.63;;
57113;SDS011;42994;51.606;9.988;2023-02-03T06:08:43;16.77;;;11.60;;
57113;SDS011;42994;51.606;9.988;2023-02-03T06:11:10;20.40;;;12.25;;
57113;SDS011;42994;51.606;9.988;2023-02-03T06:13:37;17.05;;;11.48;;
57113;SDS011;42994;51.606;9.988;2023-02-03T06:16:04;17.90;;;11.15;;
57113;SDS011;42994;51.606;9.988;2023-02-03T06:18:31;13.60;;;11.20;;
57113;SDS011;42994;51.606;9.988;2023-02-03T06:20:59;19.90;;;11.13;;
57113;SDS011;42994;51.606;9.988;2023-02-03T06:23:25;12.57;;;10.00;;
57113;SDS011;42994;51.606;9.988;2023-02-03T06:25:52;15.95;;;9.93;;
57113;SDS011;42994;51.606;9.988;2023-02-03T06:28:18;14.95;;;9.88;;
57113;SDS011;42994;51.606;9.988;2023-02-03T06:30:48;14.02;;;9.27;;
57113;SDS011;42994;51.606;9.988;2023-02-03T06:33:16;14.73;;;9.80;;
57113;SDS011;42994;51.606;9.988;2023-02-03T06:35:42;12.65;;;8.57;;
57113;SDS011;42994;51.606;9.988;2023-02-03T06:38:10;13.00;;;9.60;;
57113;SDS011;42994;51.606;9.988;2023-02-03T06:40:37;16.63;;;10.32;;
57113;SDS011;42994;51.606;9.988;2023-02-03T06:43:03;14.73;;;9.75;;
57113;SDS011;42994;51.606;9.988;2023-02-03T06:45:30;14.73;;;9.40;;
57113;SDS011;42994;51.606;9.988;2023-02-03T06:47:57;15.80;;;9.35;;
57113;SDS011;42994;51.606;9.988;2023-02-03T06:50:23;13.20;;;8.88;;
57113;SDS011;42994;51.606;9.988;2023-02-03T06:52:50;13.18;;;8.25;;
57113;SDS011;42994;51.606;9.988;2023-02-03T06:55:18;11.25;;;8.75;;
57113;SDS011;42994;51.606;9.988;2023-02-03T06:57:45;10.30;;;8.57;;
57113;SDS011;42994;51.606;9.988;2023-02-03T07:00:13;20.25;;;9.77;;
57113;SDS011;42994;51.606;9.988;2023-02-03T07:02:41;15.20;;;8.43;;
57113;SDS011;42994;51.606;9.988;2023-02-03T07:05:08;14.15;;;8.73;;
57113;SDS011;42994;51.606;9.988;2023-02-03T07:07:36;9.68;;;8.60;;
57113;SDS011;42994;51.606;9.988;2023-02-03T07:10:04;11.50;;;9.00;;
57113;SDS011;42994;51.606;9.988;2023-02-03T07:12:32;11.43;;;9.20;;
57113;SDS011;42994;51.606;9.988;2023-02-03T07:15:00;15.07;;;9.77;;
57113;SDS011;42994;51.606;9.988;2023-02-03T07:17:27;16.95;;;11.00;;
57113;SDS011;42994;51.606;9.988;2023-02-03T07:19:54;13.20;;;9.02;;
57113;SDS011;42994;51.606;9.988;2023-02-03T07:22:20;11.70;;;8.57;;
57113;SDS011;42994;51.606;9.988;2023-02-03T07:24:47;16.00;;;10.43;;
57113;SDS011;42994;51.606;9.988;2023-02-03T07:27:13;13.57;;;8.98;;
57113;SDS011;42994;51.606;9.988;2023-02-03T07:29:41;13.32;;;9.27;;
57113;SDS011;42994;51.606;9.988;2023-02-03T07:32:08;15.23;;;9.52;;
57113;SDS011;42994;51.606;9.988;2023-02-03T07:34:34;14.75;;;9.57;;
57113;SDS011;42994;51.606;9.988;2023-02-03T07:37:01;11.50;;;9.13;;
57113;SDS011;42994;51.606;9.988;2023-02-03T07:39:28;11.10;;;8.10;;
57113;SDS011;42994;51.606;9.988;2023-02-03T07:41:54;11.98;;;7.85;;
57113;SDS011;42994;51.606;9.988;2023-02-03T07:44:22;9.68;;;8.23;;
57113;SDS011;42994;51.606;9.988;2023-02-03T07:46:50;11.27;;;8.27;;
57113;SDS011;42994;51.606;9.988;2023-02-03T07:49:16;11.20;;;8.18;;
57113;SDS011;42994;51.606;9.988;2023-02-03T07:51:43;9.90;;;7.72;;
57113;SDS011;42994;51.606;9.988;2023-02-03T07:54:09;12.18;;;8.15;;
57113;SDS011;42994;51.606;9.988;2023-02-03T07:56:36;9.00;;;7.28;;
57113;SDS011;42994;51.606;9.988;2023-02-03T07:59:03;12.27;;;8.60;;
57113;SDS011;42994;51.606;9.988;2023-02-03T08:01:29;12.43;;;7.65;;
57113;SDS011;42994;51.606;9.988;2023-02-03T08:03:59;10.27;;;7.15;;
57113;SDS011;42994;51.606;9.988;2023-02-03T08:06:29;9.18;;;7.97;;
57113;SDS011;42994;51.606;9.988;2023-02-03T08:08:56;10.70;;;8.65;;
57113;SDS011;42994;51.606;9.988;2023-02-03T08:11:22;9.32;;;7.55;;
57113;SDS011;42994;51.606;9.988;2023-02-03T08:13:49;8.55;;;6.82;;
57113;SDS011;42994;51.606;9.988;2023-02-03T08:16:15;13.82;;;7.88;;
57113;SDS011;42994;51.606;9.988;2023-02-03T08:18:42;12.77;;;7.50;;
57113;SDS011;42994;51.606;9.988;2023-02-03T08:21:10;7.90;;;7.13;;
57113;SDS011;42994;51.606;9.988;2023-02-03T08:23:36;8.57;;;7.47;;
57113;SDS011;42994;51.606;9.988;2023-02-03T08:26:03;7.90;;;6.22;;
57113;SDS011;42994;51.606;9.988;2023-02-03T08:28:30;7.70;;;6.18;;
57113;SDS011;42994;51.606;9.988;2023-02-03T08:30:56;7.30;;;6.43;;
57113;SDS011;42994;51.606;9.988;2023-02-03T08:33:23;6.90;;;6.15;;
57113;SDS011;42994;51.606;9.988;2023-02-03T08:35:50;6.70;;;6.03;;
57113;SDS011;42994;51.606;9.988;2023-02-03T08:38:18;7.57;;;5.95;;
57113;SDS011;42994;51.606;9.988;2023-02-03T08:40:45;6.88;;;4.80;;
57113;SDS011;42994;51.606;9.988;2023-02-03T08:43:12;6.13;;;5.45;;
57113;SDS011;42994;51.606;9.988;2023-02-03T08:45:39;7.82;;;5.88;;
57113;SDS011;42994;51.606;9.988;2023-02-03T08:48:05;8.13;;;5.53;;
57113;SDS011;42994;51.606;9.988;2023-02-03T08:50:32;6.85;;;5.15;;
57113;SDS011;42994;51.606;9.988;2023-02-03T08:52:59;5.45;;;4.95;;
57113;SDS011;42994;51.606;9.988;2023-02-03T08:55:27;5.50;;;4.78;;
57113;SDS011;42994;51.606;9.988;2023-02-03T08:57:53;6.38;;;5.55;;
57113;SDS011;42994;51.606;9.988;2023-02-03T09:00:20;5.85;;;4.78;;
57113;SDS011;42994;51.606;9.988;2023-02-03T09:02:47;7.28;;;5.38;;
57113;SDS011;42994;51.606;9.988;2023-02-03T09:05:14;5.53;;;5.03;;
57113;SDS011;42994;51.606;9.988;2023-02-03T09:07:42;5.93;;;5.05;;
57113;SDS011;42994;51.606;9.988;2023-02-03T09:10:09;5.22;;;4.25;;
57113;SDS011;42994;51.606;9.988;2023-02-03T09:12:37;5.25;;;4.75;;
57113;SDS011;42994;51.606;9.988;2023-02-03T09:15:04;5.13;;;4.65;;
57113;SDS011;42994;51.606;9.988;2023-02-03T09:17:31;4.85;;;4.38;;
57113;SDS011;42994;51.606;9.988;2023-02-03T09:19:57;5.60;;;4.45;;
57113;SDS011;42994;51.606;9.988;2023-02-03T09:22:24;6.35;;;4.65;;
57113;SDS011;42994;51.606;9.988;2023-02-03T09:24:51;5.30;;;4.80;;
57113;SDS011;42994;51.606;9.988;2023-02-03T09:27:17;6.32;;;4.97;;
57113;SDS011;42994;51.606;9.988;2023-02-03T09:29:45;5.88;;;4.78;;
57113;SDS011;42994;51.606;9.988;2023-02-03T09:32:12;5.55;;;5.05;;
57113;SDS011;42994;51.606;9.988;2023-02-03T09:34:38;5.13;;;4.63;;
57113;SDS011;42994;51.606;9.988;2023-02-03T09:37:05;5.22;;;4.72;;
57113;SDS011;42994;51.606;9.988;2023-02-03T09:39:32;6.05;;;5.30;;
57113;SDS011;42994;51.606;9.988;2023-02-03T09:42:09;7.55;;;5.55;;
57113;SDS011;42994;51.606;9.988;2023-02-03T09:44:48;7.43;;;5.63;;
57113;SDS011;42994;51.606;9.988;2023-02-03T09:47:20;7.40;;;6.65;;
57113;SDS011;42994;51.606;9.988;2023-02-03T09:49:50;12.60;;;9.93;;
57113;SDS011;42994;51.606;9.988;2023-02-03T09:52:19;7.65;;;5.90;;
57113;SDS011;42994;51.606;9.988;2023-02-03T09:54:49;12.40;;;8.55;;
57113;SDS011;42994;51.606;9.988;2023-02-03T09:57:21;5.75;;;5.10;;
57113;SDS011;42994;51.606;9.988;2023-02-03T09:59:51;6.57;;;5.57;;
57113;SDS011;42994;51.606;9.988;2023-02-03T10:02:22;6.18;;;5.57;;
57113;SDS011;42994;51.606;9.988;2023-02-03T10:04:58;9.90;;;6.50;;
57113;SDS011;42994;51.606;9.988;2023-02-03T10:07:33;5.97;;;5.10;;
57113;SDS011;42994;51.606;9.988;2023-02-03T10:10:08;5.57;;;4.88;;
57113;SDS011;42994;51.606;9.988;2023-02-03T10:12:48;6.95;;;5.60;;
57113;SDS011;42994;51.606;9.988;2023-02-03T10:18:22;10.57;;;6.90;;
57113;SDS011;42994;51.606;9.988;2023-02-03T10:20:52;6.10;;;5.40;;
57113;SDS011;42994;51.606;9.988;2023-02-03T10:23:23;11.13;;;8.32;;
57113;SDS011;42994;51.606;9.988;2023-02-03T10:25:54;12.35;;;6.93;;
57113;SDS011;42994;51.606;9.988;2023-02-03T10:28:24;9.93;;;6.80;;
57113;SDS011;42994;51.606;9.988;2023-02-03T10:30:55;8.32;;;6.55;;
57113;SDS011;42994;51.606;9.988;2023-02-03T10:33:24;10.63;;;6.88;;
57113;SDS011;42994;51.606;9.988;2023-02-03T10:35:52;9.15;;;7.28;;
57113;SDS011;42994;51.606;9.988;2023-02-03T10:38:27;14.02;;;7.97;;
57113;SDS011;42994;51.606;9.988;2023-02-03T10:41:05;9.60;;;7.97;;
57113;SDS011;42994;51.606;9.988;2023-02-03T10:43:32;10.15;;;7.18;;
57113;SDS011;42994;51.606;9.988;2023-02-03T10:46:17;15.93;;;9.45;;
57113;SDS011;42994;51.606;9.988;2023-02-03T10:48:45;10.05;;;8.05;;
57113;SDS011;42994;51.606;9.988;2023-02-03T10:51:23;12.82;;;8.20;;
57113;SDS011;42994;51.606;9.988;2023-02-03T10:53:51;11.23;;;8.27;;
57113;SDS011;42994;51.606;9.988;2023-02-03T10:56:19;13.02;;;8.80;;
57113;SDS011;42994;51.606;9.988;2023-02-03T10:58:48;11.02;;;9.00;;
57113;SDS011;42994;51.606;9.988;2023-02-03T11:01:18;11.15;;;9.07;;
57113;SDS011;42994;51.606;9.988;2023-02-03T11:03:54;12.03;;;8.60;;
57113;SDS011;42994;51.606;9.988;2023-02-03T11:06:24;12.73;;;7.70;;
57113;SDS011;42994;51.606;9.988;2023-02-03T11:08:51;8.77;;;7.75;;
57113;SDS011;42994;51.606;9.988;2023-02-03T11:11:22;9.20;;;5.95;;
57113;SDS011;42994;51.606;9.988;2023-02-03T11:13:53;9.95;;;6.50;;
57113;SDS011;42994;51.606;9.988;2023-02-03T11:16:22;16.50;;;7.70;;
57113;SDS011;42994;51.606;9.988;2023-02-03T11:18:56;10.10;;;6.65;;
57113;SDS011;42994;51.606;9.988;2023-02-03T11:21:27;9.35;;;6.45;;
57113;SDS011;42994;51.606;9.988;2023-02-03T11:24:00;11.02;;;7.38;;
57113;SDS011;42994;51.606;9.988;2023-02-03T11:26:31;9.98;;;5.90;;
57113;SDS011;42994;51.606;9.988;2023-02-03T11:29:01;10.45;;;6.38;;
57113;SDS011;42994;51.606;9.988;2023-02-03T11:31:32;9.73;;;6.20;;
57113;SDS011;42994;51.606;9.988;2023-02-03T11:34:01;8.35;;;5.85;;
57113;SDS011;42994;51.606;9.988;2023-02-03T11:36:31;7.43;;;5.47;;
57113;SDS011;42994;51.606;9.988;2023-02-03T11:39:09;7.35;;;4.97;;
57113;SDS011;42994;51.606;9.988;2023-02-03T11:41:42;8.05;;;5.47;;
57113;SDS011;42994;51.606;9.988;2023-02-03T11:44:09;7.68;;;5.65;;
57113;SDS011;42994;51.606;9.988;2023-02-03T11:46:39;10.80;;;6.22;;
57113;SDS011;42994;51.606;9.988;2023-02-03T11:49:08;7.22;;;5.88;;
57113;SDS011;42994;51.606;9.988;2023-02-03T11:51:46;8.10;;;5.72;;
57113;SDS011;42994;51.606;9.988;2023-02-03T11:54:23;4.18;;;3.55;;
57113;SDS011;42994;51.606;9.988;2023-02-03T11:57:04;8.35;;;3.63;;
57113;SDS011;42994;51.606;9.988;2023-02-03T11:59:49;6.45;;;4.63;;
57113;SDS011;42994;51.606;9.988;2023-02-03T12:05:41;5.05;;;3.97;;
57113;SDS011;42994;51.606;9.988;2023-02-03T12:08:27;3.40;;;2.88;;
57113;SDS011;42994;51.606;9.988;2023-02-03T12:11:07;3.90;;;3.03;;
57113;SDS011;42994;51.606;9.988;2023-02-03T12:13:49;5.25;;;2.35;;
57113;SDS011;42994;51.606;9.988;2023-02-03T12:16:36;3.08;;;2.47;;
57113;SDS011;42994;51.606;9.988;2023-02-03T12:19:22;2.85;;;2.40;;
57113;SDS011;42994;51.606;9.988;2023-02-03T12:21:57;1.50;;;1.40;;
57113;SDS011;42994;51.606;9.988;2023-02-03T12:24:35;1.10;;;1.10;;
57113;SDS011;42994;51.606;9.988;2023-02-03T12:27:12;1.95;;;1.00;;
57113;SDS011;42994;51.606;9.988;2023-02-03T12:29:46;2.65;;;0.88;;
57113;SDS011;42994;51.606;9.988;2023-02-03T12:32:19;2.95;;;0.77;;
57113;SDS011;42994;51.606;9.988;2023-02-03T12:34:54;6.38;;;1.50;;
57113;SDS011;42994;51.606;9.988;2023-02-03T12:37:27;14.48;;;1.88;;
57113;SDS011;42994;51.606;9.988;2023-02-03T12:39:57;9.88;;;2.13;;
57113;SDS011;42994;51.606;9.988;2023-02-03T12:42:29;9.57;;;2.17;;
57113;SDS011;42994;51.606;9.988;2023-02-03T12:45:02;7.22;;;1.50;;
57113;SDS011;42994;51.606;9.988;2023-02-03T12:47:37;10.70;;;2.28;;
57113;SDS011;42994;51.606;9.988;2023-02-03T12:50:13;11.10;;;2.35;;
57113;SDS011;42994;51.606;9.988;2023-02-03T12:52:44;12.48;;;2.88;;
57113;SDS011;42994;51.606;9.988;2023-02-03T12:55:17;11.30;;;3.13;;
57113;SDS011;42994;51.606;9.988;2023-02-03T12:57:51;11.57;;;3.13;;
57113;SDS011;42994;51.606;9.988;2023-02-03T13:00:28;16.08;;;2.67;;
57113;SDS011;42994;51.606;9.988;2023-02-03T13:03:12;19.25;;;3.58;;
57113;SDS011;42994;51.606;9.988;2023-02-03T13:05:45;22.25;;;3.45;;
57113;SDS011;42994;51.606;9.988;2023-02-03T13:08:21;11.77;;;2.88;;
57113;SDS011;42994;51.606;9.988;2023-02-03T13:10:52;16.85;;;3.30;;
57113;SDS011;42994;51.606;9.988;2023-02-03T13:13:25;17.02;;;2.95;;
57113;SDS011;42994;51.606;9.988;2023-02-03T13:15:57;13.20;;;2.90;;
57113;SDS011;42994;51.606;9.988;2023-02-03T13:18:26;14.27;;;2.63;;
57113;SDS011;42994;51.606;9.988;2023-02-03T13:20:58;16.05;;;3.15;;
57113;SDS011;42994;51.606;9.988;2023-02-03T13:23:24;15.25;;;3.03;;
57113;SDS011;42994;51.606;9.988;2023-02-03T13:25:56;14.82;;;4.28;;
57113;SDS011;42994;51.606;9.988;2023-02-03T13:28:46;19.60;;;4.30;;
57113;SDS011;42994;51.606;9.988;2023-02-03T13:31:28;24.87;;;6.87;;
57113;SDS011;42994;51.606;9.988;2023-02-03T13:34:09;16.35;;;5.82;;
57113;SDS011;42994;51.606;9.988;2023-02-03T13:36:57;20.02;;;4.53;;
57113;SDS011;42994;51.606;9.988;2023-02-03T13:39:42;11.30;;;2.90;;
57113;SDS011;42994;51.606;9.988;2023-02-03T13:42:19;19.20;;;3.13;;
57113;SDS011;42994;51.606;9.988;2023-02-03T13:44:51;21.58;;;3.38;;
57113;SDS011;42994;51.606;9.988;2023-02-03T13:47:21;27.92;;;3.95;;
57113;SDS011;42994;51.606;9.988;2023-02-03T13:49:52;16.73;;;4.22;;
57113;SDS011;42994;51.606;9.988;2023-02-03T13:52:26;22.83;;;3.65;;
57113;SDS011;42994;51.606;9.988;2023-02-03T13:54:58;20.30;;;3.80;;
57113;SDS011;42994;51.606;9.988;2023-02-03T13:57:27;18.30;;;3.88;;
57113;SDS011;42994;51.606;9.988;2023-02-03T13:59:59;22.08;;;3.83;;
57113;SDS011;42994;51.606;9.988;2023-02-03T14:02:43;24.25;;;3.35;;
57113;SDS011;42994;51.606;9.988;2023-02-03T14:23:06;16.00;;;3.97;;
57113;SDS011;42994;51.606;9.988;2023-02-03T14:25:39;23.17;;;3.35;;
57113;SDS011;42994;51.606;9.988;2023-02-03T14:28:09;18.23;;;4.20;;
57113;SDS011;42994;51.606;9.988;2023-02-03T14:36:35;19.33;;;4.88;;
57113;SDS011;42994;51.606;9.988;2023-02-03T14:42:01;21.80;;;7.22;;
57113;SDS011;42994;51.606;9.988;2023-02-03T14:44:40;21.20;;;4.28;;
57113;SDS011;42994;51.606;9.988;2023-02-03T14:47:15;14.02;;;4.95;;
57113;SDS011;42994;51.606;9.988;2023-02-03T14:52:51;17.10;;;5.65;;
57113;SDS011;42994;51.606;9.988;2023-02-03T14:55:39;17.38;;;7.03;;
57113;SDS011;42994;51.606;9.988;2023-02-03T14:58:19;30.23;;;10.98;;
57113;SDS011;42994;51.606;9.988;2023-02-03T15:00:52;20.10;;;6.40;;
57113;SDS011;42994;51.606;9.988;2023-02-03T15:03:23;31.98;;;11.30;;
57113;SDS011;42994;51.606;9.988;2023-02-03T15:05:54;31.42;;;11.50;;
57113;SDS011;42994;51.606;9.988;2023-02-03T15:08:29;29.50;;;7.22;;
57113;SDS011;42994;51.606;9.988;2023-02-03T15:11:22;16.52;;;4.82;;
57113;SDS011;42994;51.606;9.988;2023-02-03T15:14:12;19.45;;;3.85;;
57113;SDS011;42994;51.606;9.988;2023-02-03T15:16:42;19.00;;;3.92;;
57113;SDS011;42994;51.606;9.988;2023-02-03T15:19:14;20.30;;;4.97;;
57113;SDS011;42994;51.606;9.988;2023-02-03T15:21:43;22.48;;;4.85;;
57113;SDS011;42994;51.606;9.988;2023-02-03T15:24:12;19.77;;;4.43;;
57113;SDS011;42994;51.606;9.988;2023-02-03T15:26:43;23.27;;;3.80;;
57113;SDS011;42994;51.606;9.988;2023-02-03T15:29:18;19.75;;;4.63;;
57113;SDS011;42994;51.606;9.988;2023-02-03T15:31:49;18.67;;;3.20;;